createdAt,value
2022-08-27T00:02:17.685Z,101084.75
2022-08-27T00:04:46.045Z,101085.19
2022-08-27T00:07:14.011Z,101067.25
2022-08-27T00:09:40.968Z,101046.97
2022-08-27T00:12:08.708Z,101049.53
2022-08-27T00:14:37.147Z,101040.03
2022-08-27T00:17:05.656Z,101038.91
2022-08-27T00:19:33.170Z,101033.34
2022-08-27T00:22:00.272Z,101038.28
2022-08-27T00:24:27.221Z,101047.75
2022-08-27T00:26:54.174Z,101039.50
2022-08-27T00:29:21.323Z,101030.47
2022-08-27T00:31:52.722Z,101035.66
2022-08-27T00:34:20.814Z,101041.47
2022-08-27T00:36:48.637Z,101034.63
2022-08-27T00:39:16.035Z,101038.94
2022-08-27T00:41:43.574Z,101030.94
2022-08-27T00:44:11.402Z,101033.97
2022-08-27T00:46:38.935Z,101032.63
2022-08-27T00:49:11.670Z,101040.28
2022-08-27T00:51:39.264Z,101029.91
2022-08-27T00:54:07.425Z,101029.75
2022-08-27T00:56:48.667Z,101018.19
2022-08-27T00:59:21.829Z,101024.03
2022-08-27T01:02:15.728Z,101024.72
2022-08-27T01:04:44.817Z,101030.88
2022-08-27T01:07:11.725Z,101030.06
2022-08-27T01:09:39.435Z,101029.69
2022-08-27T01:12:06.687Z,101029.75
2022-08-27T01:14:33.745Z,101040.19
2022-08-27T01:17:01.597Z,101043.91
2022-08-27T01:19:51.498Z,101042.75
2022-08-27T01:22:21.648Z,101047.13
2022-08-27T01:24:52.638Z,101046.41
2022-08-27T01:29:48.785Z,101041.47
2022-08-27T01:32:20.857Z,101039.47
2022-08-27T01:34:48.290Z,101038.00
2022-08-27T01:37:16.067Z,101039.69
2022-08-27T01:39:50.760Z,101033.97
2022-08-27T01:42:44.155Z,101037.03
2022-08-27T01:45:13.349Z,101032.47
2022-08-27T01:47:40.761Z,101035.66
2022-08-27T01:50:09.820Z,101037.53
2022-08-27T01:52:37.283Z,101037.38
2022-08-27T01:55:05.937Z,101034.19
2022-08-27T01:57:33.762Z,101034.38
2022-08-27T02:00:01.549Z,101034.53
2022-08-27T02:02:28.541Z,101036.72
2022-08-27T02:04:55.541Z,101025.84
2022-08-27T02:07:22.710Z,101026.53
2022-08-27T02:09:50.843Z,101027.56
2022-08-27T02:12:17.706Z,101028.53
2022-08-27T02:14:44.972Z,101029.84
2022-08-27T02:17:12.595Z,101031.91
2022-08-27T02:19:39.443Z,101033.75
2022-08-27T02:22:07.512Z,101026.56
2022-08-27T02:24:34.466Z,101015.41
2022-08-27T02:27:02.073Z,101021.16
2022-08-27T02:29:29.183Z,101023.66
2022-08-27T02:31:56.282Z,101018.66
2022-08-27T02:34:23.436Z,101018.31
2022-08-27T02:36:50.705Z,101016.63
2022-08-27T02:39:17.821Z,101010.00
2022-08-27T02:41:44.677Z,101011.81
2022-08-27T02:44:12.085Z,101010.31
2022-08-27T02:46:41.796Z,101005.78
2022-08-27T02:49:09.649Z,100997.28
2022-08-27T02:51:37.153Z,101002.63
2022-08-27T02:54:04.074Z,100996.78
2022-08-27T02:56:30.966Z,101001.75
2022-08-27T02:58:59.602Z,101010.31
2022-08-27T03:01:26.542Z,100998.25
2022-08-27T03:03:53.578Z,101011.09
2022-08-27T03:06:20.633Z,101017.78
2022-08-27T03:08:52.865Z,101014.44
2022-08-27T03:11:21.838Z,101017.78
2022-08-27T03:13:49.078Z,101013.59
2022-08-27T03:16:16.226Z,101007.09
2022-08-27T03:18:43.267Z,101006.94
2022-08-27T03:21:16.715Z,101000.91
2022-08-27T03:23:43.624Z,101001.38
2022-08-27T03:26:11.033Z,100998.56
2022-08-27T03:28:38.840Z,100998.25
2022-08-27T03:31:07.001Z,100996.88
2022-08-27T03:33:38.535Z,100984.53
2022-08-27T03:36:07.669Z,100976.84
2022-08-27T03:38:35.062Z,100990.63
2022-08-27T03:41:02.772Z,100993.31
2022-08-27T03:43:30.077Z,100988.34
2022-08-27T03:46:00.954Z,100988.81
2022-08-27T03:48:30.636Z,100988.66
2022-08-27T03:50:58.435Z,100996.38
2022-08-27T03:53:26.254Z,100997.50
2022-08-27T03:55:53.149Z,100991.66
2022-08-27T03:58:20.411Z,100994.00
2022-08-27T04:00:47.488Z,101003.00
2022-08-27T04:03:14.999Z,100999.50
2022-08-27T04:05:45.306Z,101002.34
2022-08-27T04:08:13.584Z,100991.81
2022-08-27T04:10:41.663Z,100995.31
2022-08-27T04:13:09.177Z,100995.81
2022-08-27T04:15:40.712Z,100997.50
2022-08-27T04:18:08.256Z,100998.88
2022-08-27T04:20:36.374Z,101000.13
2022-08-27T04:23:04.216Z,101003.78
2022-08-27T04:25:31.590Z,101011.72
2022-08-27T04:27:59.195Z,101014.06
2022-08-27T04:30:26.167Z,101015.91
2022-08-27T04:32:53.068Z,101019.69
2022-08-27T04:35:20.287Z,101032.03
2022-08-27T04:37:47.281Z,101022.88
2022-08-27T04:40:14.132Z,101025.81
2022-08-27T04:42:41.330Z,101025.34
2022-08-27T04:45:08.581Z,101028.56
2022-08-27T04:47:36.094Z,101036.63
2022-08-27T04:50:05.784Z,101039.63
2022-08-27T04:52:33.410Z,101036.94
2022-08-27T04:55:08.406Z,101041.16
2022-08-27T04:57:36.302Z,101041.00
2022-08-27T05:00:03.763Z,101038.63
2022-08-27T05:02:31.165Z,101034.50
2022-08-27T05:04:58.085Z,101043.50
2022-08-27T05:07:25.085Z,101043.19
2022-08-27T05:09:52.604Z,101044.19
2022-08-27T05:12:19.991Z,101045.66
2022-08-27T05:14:47.234Z,101046.66
2022-08-27T05:17:14.525Z,101064.22
2022-08-27T05:19:41.317Z,101082.75
2022-08-27T05:22:08.493Z,101086.34
2022-08-27T05:24:35.778Z,101086.47
2022-08-27T05:27:02.562Z,101099.56
2022-08-27T05:29:29.427Z,101111.38
2022-08-27T05:31:56.663Z,101102.75
2022-08-27T05:34:26.964Z,101103.69
2022-08-27T05:36:54.660Z,101090.22
2022-08-27T05:39:21.904Z,101086.03
2022-08-27T05:41:48.830Z,101082.84
2022-08-27T05:44:40.626Z,101082.13
2022-08-27T05:47:05.198Z,101086.59
2022-08-27T05:49:32.397Z,101087.66
2022-08-27T05:51:59.506Z,101076.38
2022-08-27T05:54:26.647Z,101086.69
2022-08-27T05:56:54.012Z,101093.22
2022-08-27T05:59:39.464Z,101092.06
2022-08-27T06:02:07.370Z,101100.38
2022-08-27T06:04:34.838Z,101095.34
2022-08-27T06:07:02.364Z,101092.84
2022-08-27T06:09:29.718Z,101090.84
2022-08-27T06:11:57.982Z,101094.75
2022-08-27T06:14:24.978Z,101098.41
2022-08-27T06:16:52.384Z,101080.09
2022-08-27T06:19:19.622Z,101066.16
2022-08-27T06:21:46.549Z,101061.00
2022-08-27T06:24:27.787Z,101051.91
2022-08-27T06:26:54.726Z,101052.16
2022-08-27T06:29:23.804Z,101047.56
2022-08-27T06:31:52.994Z,101038.75
2022-08-27T06:34:20.409Z,101035.28
2022-08-27T06:36:47.337Z,101039.88
2022-08-27T06:39:16.928Z,101040.16
2022-08-27T06:41:44.321Z,101036.06
2022-08-27T06:44:12.215Z,101042.75
2022-08-27T06:46:40.113Z,101043.13
2022-08-27T06:49:07.224Z,101049.16
2022-08-27T06:51:35.935Z,101046.31
2022-08-27T06:54:05.307Z,101047.81
2022-08-27T06:56:32.543Z,101050.19
2022-08-27T06:59:01.002Z,101053.91
2022-08-27T07:01:30.685Z,101058.50
2022-08-27T07:03:58.990Z,101064.06
2022-08-27T07:06:27.116Z,101070.19
2022-08-27T07:08:54.955Z,101078.59
2022-08-27T07:11:22.360Z,101074.91
2022-08-27T07:13:49.827Z,101085.28
2022-08-27T07:16:19.526Z,101087.44
2022-08-27T07:18:50.524Z,101094.31
2022-08-27T07:21:20.432Z,101087.47
2022-08-27T07:23:48.728Z,101093.72
2022-08-27T07:26:16.280Z,101095.38
2022-08-27T07:28:44.353Z,101097.38
2022-08-27T07:31:13.057Z,101100.41
2022-08-27T07:33:42.123Z,101096.75
2022-08-27T07:36:14.586Z,101091.56
2022-08-27T07:38:41.566Z,101082.84
2022-08-27T07:41:09.883Z,101081.69
2022-08-27T07:43:56.173Z,101074.34
2022-08-27T07:46:24.178Z,101078.38
2022-08-27T07:48:51.951Z,101076.19
2022-08-27T07:51:20.350Z,101064.13
2022-08-27T07:53:47.644Z,101055.09
2022-08-27T07:56:15.230Z,101040.53
2022-08-27T07:58:42.377Z,101040.84
2022-08-27T08:01:09.492Z,101047.03
2022-08-27T08:03:36.818Z,101054.03
2022-08-27T08:06:06.517Z,101044.66
2022-08-27T08:08:34.758Z,101034.31
2022-08-27T08:11:03.885Z,101024.44
2022-08-27T08:13:31.668Z,101008.88
2022-08-27T08:15:59.784Z,101017.91
2022-08-27T08:18:27.705Z,101020.75
2022-08-27T08:21:05.862Z,101016.41
2022-08-27T08:23:33.922Z,101016.91
2022-08-27T08:26:01.441Z,101036.78
2022-08-27T08:28:29.371Z,101053.50
2022-08-27T08:30:57.180Z,101057.00
2022-08-27T08:33:24.617Z,101057.16
2022-08-27T08:35:52.154Z,101058.88
2022-08-27T08:38:19.592Z,101061.56
2022-08-27T08:40:49.859Z,101063.06
2022-08-27T08:43:38.200Z,101064.59
2022-08-27T08:46:22.503Z,101063.94
2022-08-27T08:48:53.373Z,101073.16
2022-08-27T08:51:26.914Z,101082.59
2022-08-27T08:54:04.926Z,101077.06
2022-08-27T08:56:40.449Z,101087.09
2022-08-27T08:59:25.719Z,101095.63
2022-08-27T09:01:53.172Z,101092.63
2022-08-27T09:04:20.284Z,101083.56
2022-08-27T09:06:50.491Z,101086.47
2022-08-27T09:09:24.081Z,101089.81
2022-08-27T09:12:09.949Z,101092.84
2022-08-27T09:14:46.513Z,101083.25
2022-08-27T09:17:13.865Z,101079.06
2022-08-27T09:19:41.627Z,101082.47
2022-08-27T09:22:28.544Z,101081.28
2022-08-27T09:24:55.804Z,101097.03
2022-08-27T09:27:23.672Z,101097.91
2022-08-27T09:29:54.582Z,101100.22
2022-08-27T09:32:25.726Z,101103.00
2022-08-27T09:34:57.116Z,101091.44
2022-08-27T09:37:34.295Z,101096.84
2022-08-27T09:40:13.701Z,101090.06
2022-08-27T09:42:53.509Z,101088.22
2022-08-27T09:45:23.825Z,101083.13
2022-08-27T09:47:53.345Z,101087.22
2022-08-27T09:50:22.518Z,101088.25
2022-08-27T09:52:57.409Z,101086.75
2022-08-27T09:55:36.991Z,101088.56
2022-08-27T09:58:06.202Z,101088.50
2022-08-27T10:00:40.225Z,101094.44
2022-08-27T10:03:08.855Z,101091.06
2022-08-27T10:05:38.334Z,101088.66
2022-08-27T10:08:14.026Z,101088.94
2022-08-27T10:10:44.535Z,101083.50
2022-08-27T10:13:15.554Z,101080.66
2022-08-27T10:15:49.403Z,101082.41
2022-08-27T10:18:28.806Z,101073.78
2022-08-27T10:21:07.869Z,101079.78
2022-08-27T10:23:38.008Z,101077.03
2022-08-27T10:26:23.289Z,101077.91
2022-08-27T10:28:57.382Z,101080.91
2022-08-27T10:31:28.184Z,101081.75
2022-08-27T10:34:01.269Z,101076.22
2022-08-27T10:36:44.765Z,101084.38
2022-08-27T10:39:15.033Z,101080.59
2022-08-27T10:41:46.235Z,101081.84
2022-08-27T10:44:26.793Z,101086.25
2022-08-27T10:47:12.767Z,101082.88
2022-08-27T10:49:46.958Z,101076.38
2022-08-27T10:52:23.325Z,101081.03
2022-08-27T10:54:50.707Z,101084.69
2022-08-27T10:57:39.988Z,101079.00
2022-08-27T11:00:11.494Z,101076.03
2022-08-27T11:02:48.444Z,101081.16
2022-08-27T11:05:17.810Z,101087.19
2022-08-27T11:07:47.911Z,101079.22
2022-08-27T11:10:33.201Z,101086.00
2022-08-27T11:13:09.252Z,101086.78
2022-08-27T11:15:42.020Z,101079.19
2022-08-27T11:18:17.197Z,101086.34
2022-08-27T11:20:44.278Z,101086.22
2022-08-27T11:23:15.294Z,101084.13
2022-08-27T11:25:58.334Z,101086.22
2022-08-27T11:28:31.999Z,101088.94
2022-08-27T11:31:06.820Z,101086.78
2022-08-27T11:33:44.099Z,101081.25
2022-08-27T11:36:16.428Z,101082.50
2022-08-27T11:39:02.335Z,101087.56
2022-08-27T11:41:44.986Z,101091.75
2022-08-27T11:44:14.227Z,101092.31
2022-08-27T11:46:46.182Z,101097.28
2022-08-27T11:49:24.250Z,101098.84
2022-08-27T11:52:00.027Z,101097.28
2022-08-27T11:54:31.986Z,101096.34
2022-08-27T11:56:59.249Z,101091.00
2022-08-27T11:59:26.833Z,101096.03
2022-08-27T12:01:55.902Z,101101.84
2022-08-27T12:04:32.145Z,101090.09
2022-08-27T12:07:05.608Z,101088.72
2022-08-27T12:09:47.864Z,101083.59
2022-08-27T12:12:21.026Z,101077.50
2022-08-27T12:14:51.908Z,101083.78
2022-08-27T12:17:18.984Z,101073.91
2022-08-27T12:19:48.943Z,101070.81
2022-08-27T12:22:19.101Z,101060.97
2022-08-27T12:24:56.409Z,101070.03
2022-08-27T12:27:26.733Z,101076.13
2022-08-27T12:30:12.692Z,101072.69
2022-08-27T12:32:40.971Z,101076.84
2022-08-27T12:35:10.994Z,101076.13
2022-08-27T12:37:45.242Z,101070.59
2022-08-27T12:40:19.484Z,101067.81
2022-08-27T12:42:48.146Z,101066.16
2022-08-27T12:45:23.924Z,101066.81
2022-08-27T12:47:51.852Z,101059.66
2022-08-27T12:50:26.915Z,101052.63
2022-08-27T12:53:00.350Z,101061.19
2022-08-27T12:55:27.556Z,101052.28
2022-08-27T12:57:57.321Z,101061.84
2022-08-27T13:00:26.516Z,101054.59
2022-08-27T13:03:07.458Z,101055.03
2022-08-27T13:05:39.772Z,101057.94
2022-08-27T13:08:25.783Z,101060.38
2022-08-27T13:10:53.151Z,101053.72
2022-08-27T13:13:22.571Z,101052.03
2022-08-27T13:16:01.687Z,101056.38
2022-08-27T13:18:30.015Z,101056.97
2022-08-27T13:21:02.451Z,101048.38
2022-08-27T13:23:30.519Z,101046.84
2022-08-27T13:26:03.133Z,101048.38
2022-08-27T13:28:31.061Z,101046.72
2022-08-27T13:30:59.473Z,101046.91
2022-08-27T13:33:28.357Z,101051.72
2022-08-27T13:35:57.588Z,101049.34
2022-08-27T13:38:26.367Z,101040.75
2022-08-27T13:41:06.324Z,101041.97
2022-08-27T13:43:35.537Z,101046.00
2022-08-27T13:46:07.427Z,101039.84
2022-08-27T13:48:35.390Z,101053.78
2022-08-27T13:51:03.509Z,101047.50
2022-08-27T13:53:50.512Z,101041.66
2022-08-27T13:56:25.019Z,101048.34
2022-08-27T13:58:52.566Z,101050.63
2022-08-27T14:01:28.220Z,101043.31
2022-08-27T14:03:58.026Z,101044.94
2022-08-27T14:06:31.974Z,101042.50
2022-08-27T14:09:15.334Z,101049.28
2022-08-27T14:11:43.540Z,101048.44
2022-08-27T14:14:10.563Z,101038.63
2022-08-27T14:16:38.109Z,101043.91
2022-08-27T14:19:08.981Z,101048.91
2022-08-27T14:21:37.226Z,101052.59
2022-08-27T14:24:04.777Z,101048.38
2022-08-27T14:26:31.939Z,101047.44
2022-08-27T14:28:59.574Z,101043.81
2022-08-27T14:31:27.583Z,101048.38
2022-08-27T14:33:54.897Z,101054.00
2022-08-27T14:36:23.008Z,101049.47
2022-08-27T14:38:51.970Z,101046.50
2022-08-27T14:41:21.585Z,101049.84
2022-08-27T14:43:49.784Z,101053.38
2022-08-27T14:46:20.040Z,101056.31
2022-08-27T14:48:51.503Z,101056.06
2022-08-27T14:51:22.333Z,101054.72
2022-08-27T14:53:51.502Z,101050.00
2022-08-27T14:56:18.781Z,101048.13
2022-08-27T14:58:46.330Z,101051.22
2022-08-27T15:01:14.206Z,101048.53
2022-08-27T15:03:48.170Z,101039.78
2022-08-27T15:06:16.288Z,101048.22
2022-08-27T15:08:44.719Z,101041.06
2022-08-27T15:11:14.966Z,101041.94
2022-08-27T15:13:42.318Z,101034.47
2022-08-27T15:16:09.461Z,101039.78
2022-08-27T15:18:36.888Z,101029.00
2022-08-27T15:21:04.586Z,101031.97
2022-08-27T15:23:31.990Z,101025.25
2022-08-27T15:25:59.080Z,101024.56
2022-08-27T15:28:26.517Z,101025.25
2022-08-27T15:30:53.652Z,101032.09
2022-08-27T15:33:21.566Z,101028.56
2022-08-27T15:35:48.950Z,101030.63
2022-08-27T15:38:15.862Z,101034.25
2022-08-27T15:40:42.792Z,101027.09
2022-08-27T15:43:10.557Z,101032.81
2022-08-27T15:45:37.867Z,101037.91
2022-08-27T15:48:04.992Z,101033.00
2022-08-27T15:50:32.840Z,101033.91
2022-08-27T15:53:01.891Z,101029.53
2022-08-27T15:55:31.045Z,101031.66
2022-08-27T15:58:00.179Z,101025.16
2022-08-27T16:00:28.607Z,101029.78
2022-08-27T16:02:56.293Z,101030.53
2022-08-27T16:05:23.837Z,101025.25
2022-08-27T16:07:50.738Z,101027.25
2022-08-27T16:10:18.026Z,101033.00
2022-08-27T16:12:46.273Z,101025.44
2022-08-27T16:15:14.427Z,101043.97
2022-08-27T16:17:42.077Z,101042.72
2022-08-27T16:20:10.964Z,101035.69
2022-08-27T16:22:38.379Z,101028.19
2022-08-27T16:25:06.430Z,101031.03
2022-08-27T16:27:34.071Z,101025.00
2022-08-27T16:30:01.102Z,101032.41
2022-08-27T16:32:31.994Z,101029.53
2022-08-27T16:35:00.694Z,101030.69
2022-08-27T16:37:27.604Z,101030.00
2022-08-27T16:39:54.731Z,101030.56
2022-08-27T16:42:22.355Z,101034.09
2022-08-27T16:44:49.310Z,101034.41
2022-08-27T16:47:16.691Z,101049.72
2022-08-27T16:50:02.618Z,101051.22
2022-08-27T16:52:30.644Z,101052.03
2022-08-27T16:54:57.725Z,101059.09
2022-08-27T16:57:24.742Z,101065.81
2022-08-27T16:59:51.771Z,101063.50
2022-08-27T17:02:30.363Z,101073.78
2022-08-27T17:05:07.379Z,101074.31
2022-08-27T17:07:46.171Z,101069.78
2022-08-27T17:10:17.657Z,101069.81
2022-08-27T17:12:47.409Z,101069.19
2022-08-27T17:15:17.994Z,101075.06
2022-08-27T17:17:47.465Z,101074.78
2022-08-27T17:20:18.260Z,101079.81
2022-08-27T17:22:46.041Z,101080.16
2022-08-27T17:25:15.240Z,101082.19
2022-08-27T17:27:43.736Z,101089.44
2022-08-27T17:30:11.847Z,101082.41
2022-08-27T17:32:40.305Z,101085.44
2022-08-27T17:35:09.565Z,101083.44
2022-08-27T17:37:37.805Z,101088.50
2022-08-27T17:40:06.204Z,101090.03
2022-08-27T17:42:34.562Z,101093.41
2022-08-27T17:45:02.920Z,101095.75
2022-08-27T17:47:31.425Z,101091.75
2022-08-27T17:50:00.187Z,101096.63
2022-08-27T17:52:27.889Z,101097.81
2022-08-27T17:54:56.961Z,101096.63
2022-08-27T17:57:24.258Z,101093.41
2022-08-27T17:59:52.316Z,101101.50
2022-08-27T18:02:31.397Z,101098.13
2022-08-27T18:04:59.306Z,101095.47
2022-08-27T18:07:26.865Z,101101.84
2022-08-27T18:09:54.091Z,101103.69
2022-08-27T18:12:23.905Z,101099.00
2022-08-27T18:15:17.923Z,101102.50
2022-08-27T18:17:46.048Z,101110.88
2022-08-27T18:20:15.215Z,101118.09
2022-08-27T18:22:48.907Z,101127.97
2022-08-27T18:25:19.070Z,101134.50
2022-08-27T18:27:49.126Z,101140.38
2022-08-27T18:30:17.512Z,101142.19
2022-08-27T18:32:46.276Z,101142.53
2022-08-27T18:35:19.515Z,101150.25
2022-08-27T18:37:48.439Z,101149.69
2022-08-27T18:40:16.610Z,101153.69
2022-08-27T18:42:45.085Z,101148.66
2022-08-27T18:45:17.501Z,101145.47
2022-08-27T18:47:47.541Z,101152.31
2022-08-27T18:50:20.064Z,101151.50
2022-08-27T18:52:49.666Z,101141.06
2022-08-27T18:55:20.158Z,101142.72
2022-08-27T18:57:48.093Z,101144.91
2022-08-27T19:00:16.771Z,101152.88
2022-08-27T19:02:47.847Z,101159.44
2022-08-27T19:05:22.723Z,101156.22
2022-08-27T19:07:51.004Z,101171.72
2022-08-27T19:10:19.390Z,101173.28
2022-08-27T19:12:48.965Z,101181.97
2022-08-27T19:15:17.331Z,101189.31
2022-08-27T19:17:49.114Z,101183.56
2022-08-27T19:20:19.805Z,101183.22
2022-08-27T19:22:48.000Z,101184.69
2022-08-27T19:25:16.597Z,101181.84
2022-08-27T19:27:47.151Z,101187.34
2022-08-27T19:30:15.971Z,101185.09
2022-08-27T19:32:43.313Z,101189.13
2022-08-27T19:35:10.700Z,101188.63
2022-08-27T19:37:39.756Z,101194.66
2022-08-27T19:40:09.699Z,101201.53
2022-08-27T19:42:37.606Z,101202.59
2022-08-27T19:45:05.750Z,101209.47
2022-08-27T19:47:33.067Z,101207.66
2022-08-27T19:50:00.480Z,101196.13
2022-08-27T19:52:27.483Z,101199.69
2022-08-27T19:55:13.128Z,101202.28
2022-08-27T19:57:42.333Z,101203.34
2022-08-27T20:00:10.157Z,101202.81
2022-08-27T20:02:37.546Z,101202.53
2022-08-27T20:05:21.106Z,101213.88
2022-08-27T20:07:50.007Z,101214.94
2022-08-27T20:10:18.885Z,101210.81
2022-08-27T20:12:46.556Z,101211.16
2022-08-27T20:15:14.006Z,101213.47
2022-08-27T20:17:43.209Z,101220.72
2022-08-27T20:20:11.463Z,101222.59
2022-08-27T20:22:39.888Z,101221.47
2022-08-27T20:25:08.070Z,101220.31
2022-08-27T20:27:35.588Z,101219.28
2022-08-27T20:30:04.978Z,101222.59
2022-08-27T20:32:32.643Z,101232.69
2022-08-27T20:34:59.558Z,101228.09
2022-08-27T20:37:26.513Z,101237.50
2022-08-27T20:39:53.954Z,101231.25
2022-08-27T20:42:20.964Z,101231.91
2022-08-27T20:44:48.459Z,101225.88
2022-08-27T20:47:16.142Z,101229.81
2022-08-27T20:49:44.845Z,101228.28
2022-08-27T20:52:13.260Z,101235.16
2022-08-27T20:54:41.022Z,101240.94
2022-08-27T20:57:09.227Z,101244.16
2022-08-27T20:59:54.799Z,101243.59
2022-08-27T21:02:24.260Z,101253.59
2022-08-27T21:04:51.967Z,101249.78
2022-08-27T21:07:20.221Z,101255.25
2022-08-27T21:09:56.162Z,101254.16
2022-08-27T21:12:25.957Z,101254.56
2022-08-27T21:14:54.948Z,101253.59
2022-08-27T21:17:25.274Z,101254.72
2022-08-27T21:19:52.430Z,101255.75
2022-08-27T21:22:20.311Z,101255.63
2022-08-27T21:24:47.810Z,101261.94
2022-08-27T21:27:15.357Z,101264.44
2022-08-27T21:29:45.034Z,101253.34
2022-08-27T21:32:12.928Z,101251.38
2022-08-27T21:34:39.958Z,101250.09
2022-08-27T21:37:07.486Z,101244.41
2022-08-27T21:39:34.578Z,101245.97
2022-08-27T21:42:02.093Z,101243.53
2022-08-27T21:44:29.970Z,101242.13
2022-08-27T21:46:57.708Z,101242.72
2022-08-27T21:49:24.899Z,101245.53
2022-08-27T21:51:52.729Z,101243.88
2022-08-27T21:54:19.816Z,101236.88
2022-08-27T21:56:50.390Z,101237.81
2022-08-27T21:59:17.594Z,101226.47
2022-08-27T22:01:44.523Z,101226.31
2022-08-27T22:04:11.441Z,101232.53
2022-08-27T22:06:38.584Z,101231.28
2022-08-27T22:09:05.937Z,101225.13
2022-08-27T22:11:32.725Z,101237.72
2022-08-27T22:13:59.891Z,101247.00
2022-08-27T22:16:27.049Z,101250.25
2022-08-27T22:18:54.998Z,101247.13
2022-08-27T22:21:25.490Z,101244.22
2022-08-27T22:23:52.641Z,101243.94
2022-08-27T22:26:20.443Z,101244.63
2022-08-27T22:28:47.727Z,101241.66
2022-08-27T22:31:15.199Z,101237.63
2022-08-27T22:33:42.649Z,101239.28
2022-08-27T22:36:10.015Z,101234.94
2022-08-27T22:38:36.953Z,101240.84
2022-08-27T22:41:04.071Z,101246.72
2022-08-27T22:43:31.432Z,101242.09
2022-08-27T22:45:58.402Z,101241.25
2022-08-27T22:48:25.269Z,101234.38
2022-08-27T22:50:52.417Z,101242.22
2022-08-27T22:53:19.561Z,101240.84
2022-08-27T22:55:50.060Z,101238.72
2022-08-27T22:58:18.167Z,101244.34
2022-08-27T23:00:52.168Z,101236.50
2022-08-27T23:03:20.574Z,101240.69
2022-08-27T23:05:47.735Z,101235.22
2022-08-27T23:08:15.570Z,101236.47
2022-08-27T23:10:43.611Z,101237.47
2022-08-27T23:13:11.505Z,101228.03
2022-08-27T23:15:39.430Z,101225.25
2022-08-27T23:18:06.787Z,101226.53
2022-08-27T23:20:34.534Z,101227.94
2022-08-27T23:23:02.691Z,101224.16
2022-08-27T23:25:48.507Z,101223.59
2022-08-27T23:28:15.915Z,101220.06
2022-08-27T23:30:44.314Z,101228.34
2022-08-27T23:33:11.892Z,101227.09
2022-08-27T23:35:38.993Z,101233.53
2022-08-27T23:38:06.211Z,101231.03
2022-08-27T23:40:33.391Z,101235.66
2022-08-27T23:43:00.854Z,101234.38
2022-08-27T23:45:28.246Z,101241.38
2022-08-27T23:47:55.173Z,101239.03
2022-08-27T23:50:33.667Z,101237.47
2022-08-27T23:53:02.619Z,101245.91
2022-08-27T23:55:30.176Z,101246.16
2022-08-27T23:58:00.428Z,101246.31
